sensor_id;sensor_type;location;lat;lon;timestamp;P1;durP1;ratioP1;P2;durP2;ratioP2
13208;SDS011;6669;42.678;23.332;2023-11-21T00:00:38;12.20;;;8.17;;
13208;SDS011;6669;42.678;23.332;2023-11-21T00:03:07;9.43;;;7.03;;
13208;SDS011;6669;42.678;23.332;2023-11-21T00:05:35;9.17;;;6.93;;
13208;SDS011;6669;42.678;23.332;2023-11-21T00:08:04;10.70;;;7.50;;
13208;SDS011;6669;42.678;23.332;2023-11-21T00:10:32;8.67;;;7.07;;
13208;SDS011;6669;42.678;23.332;2023-11-21T00:13:02;9.17;;;7.67;;
13208;SDS011;6669;42.678;23.332;2023-11-21T00:15:30;10.97;;;7.67;;
13208;SDS011;6669;42.678;23.332;2023-11-21T00:17:59;9.97;;;7.70;;
13208;SDS011;6669;42.678;23.332;2023-11-21T00:20:27;9.90;;;7.80;;
13208;SDS011;6669;42.678;23.332;2023-11-21T00:22:55;9.87;;;7.27;;
13208;SDS011;6669;42.678;23.332;2023-11-21T00:25:23;12.00;;;10.03;;
13208;SDS011;6669;42.678;23.332;2023-11-21T00:27:51;10.50;;;8.37;;
13208;SDS011;6669;42.678;23.332;2023-11-21T00:30:21;9.03;;;7.43;;
13208;SDS011;6669;42.678;23.332;2023-11-21T00:32:49;9.30;;;7.20;;
13208;SDS011;6669;42.678;23.332;2023-11-21T00:35:18;10.90;;;8.60;;
13208;SDS011;6669;42.678;23.332;2023-11-21T00:37:46;11.53;;;8.07;;
13208;SDS011;6669;42.678;23.332;2023-11-21T00:40:16;26.67;;;21.17;;
13208;SDS011;6669;42.678;23.332;2023-11-21T00:42:45;8.80;;;7.00;;
13208;SDS011;6669;42.678;23.332;2023-11-21T00:45:14;8.00;;;5.57;;
13208;SDS011;6669;42.678;23.332;2023-11-21T00:47:43;42.13;;;23.50;;
13208;SDS011;6669;42.678;23.332;2023-11-21T00:50:11;7.93;;;6.17;;
13208;SDS011;6669;42.678;23.332;2023-11-21T00:52:40;15.37;;;9.70;;
13208;SDS011;6669;42.678;23.332;2023-11-21T00:55:08;14.03;;;8.97;;
13208;SDS011;6669;42.678;23.332;2023-11-21T00:57:38;12.47;;;8.17;;
13208;SDS011;6669;42.678;23.332;2023-11-21T01:00:07;10.90;;;7.67;;
13208;SDS011;6669;42.678;23.332;2023-11-21T01:02:40;9.43;;;7.13;;
13208;SDS011;6669;42.678;23.332;2023-11-21T01:05:09;10.13;;;7.33;;
13208;SDS011;6669;42.678;23.332;2023-11-21T01:07:37;9.83;;;6.80;;
13208;SDS011;6669;42.678;23.332;2023-11-21T01:10:06;8.47;;;6.70;;
13208;SDS011;6669;42.678;23.332;2023-11-21T01:12:35;8.63;;;6.67;;
13208;SDS011;6669;42.678;23.332;2023-11-21T01:15:04;8.17;;;6.90;;
13208;SDS011;6669;42.678;23.332;2023-11-21T01:17:35;11.47;;;8.57;;
13208;SDS011;6669;42.678;23.332;2023-11-21T01:20:05;12.10;;;8.90;;
13208;SDS011;6669;42.678;23.332;2023-11-21T01:22:40;13.07;;;9.47;;
13208;SDS011;6669;42.678;23.332;2023-11-21T01:25:10;13.13;;;10.23;;
13208;SDS011;6669;42.678;23.332;2023-11-21T01:27:38;14.00;;;11.17;;
13208;SDS011;6669;42.678;23.332;2023-11-21T01:30:06;17.33;;;11.93;;
13208;SDS011;6669;42.678;23.332;2023-11-21T01:32:37;16.03;;;12.13;;
13208;SDS011;6669;42.678;23.332;2023-11-21T01:35:06;14.50;;;11.87;;
13208;SDS011;6669;42.678;23.332;2023-11-21T01:37:36;19.30;;;12.47;;
13208;SDS011;6669;42.678;23.332;2023-11-21T01:40:06;16.60;;;13.10;;
13208;SDS011;6669;42.678;23.332;2023-11-21T01:42:40;19.67;;;12.87;;
13208;SDS011;6669;42.678;23.332;2023-11-21T01:45:10;16.73;;;12.27;;
13208;SDS011;6669;42.678;23.332;2023-11-21T01:47:39;17.67;;;12.83;;
13208;SDS011;6669;42.678;23.332;2023-11-21T01:50:09;16.50;;;12.43;;
13208;SDS011;6669;42.678;23.332;2023-11-21T01:52:42;16.00;;;12.13;;
13208;SDS011;6669;42.678;23.332;2023-11-21T01:55:14;15.83;;;12.97;;
13208;SDS011;6669;42.678;23.332;2023-11-21T01:57:54;14.97;;;12.87;;
13208;SDS011;6669;42.678;23.332;2023-11-21T02:00:23;17.73;;;13.17;;
13208;SDS011;6669;42.678;23.332;2023-11-21T02:02:52;18.63;;;13.83;;
13208;SDS011;6669;42.678;23.332;2023-11-21T02:05:20;15.93;;;13.03;;
13208;SDS011;6669;42.678;23.332;2023-11-21T02:07:49;19.97;;;14.10;;
13208;SDS011;6669;42.678;23.332;2023-11-21T02:10:20;17.83;;;12.73;;
13208;SDS011;6669;42.678;23.332;2023-11-21T02:12:50;17.37;;;13.93;;
13208;SDS011;6669;42.678;23.332;2023-11-21T02:15:19;19.60;;;14.30;;
13208;SDS011;6669;42.678;23.332;2023-11-21T02:17:47;18.50;;;15.23;;
13208;SDS011;6669;42.678;23.332;2023-11-21T02:20:19;16.53;;;14.13;;
13208;SDS011;6669;42.678;23.332;2023-11-21T02:22:53;18.67;;;13.70;;
13208;SDS011;6669;42.678;23.332;2023-11-21T02:25:25;17.20;;;13.13;;
13208;SDS011;6669;42.678;23.332;2023-11-21T02:27:54;19.53;;;12.80;;
13208;SDS011;6669;42.678;23.332;2023-11-21T02:30:23;20.13;;;14.23;;
13208;SDS011;6669;42.678;23.332;2023-11-21T02:32:52;22.03;;;14.20;;
13208;SDS011;6669;42.678;23.332;2023-11-21T02:35:20;22.97;;;14.83;;
13208;SDS011;6669;42.678;23.332;2023-11-21T02:37:49;19.70;;;14.27;;
13208;SDS011;6669;42.678;23.332;2023-11-21T02:40:19;18.50;;;13.90;;
13208;SDS011;6669;42.678;23.332;2023-11-21T02:42:48;19.67;;;13.80;;
13208;SDS011;6669;42.678;23.332;2023-11-21T02:45:17;17.17;;;13.60;;
13208;SDS011;6669;42.678;23.332;2023-11-21T02:47:48;18.37;;;13.40;;
13208;SDS011;6669;42.678;23.332;2023-11-21T02:50:16;17.73;;;13.73;;
13208;SDS011;6669;42.678;23.332;2023-11-21T02:52:46;17.10;;;13.73;;
13208;SDS011;6669;42.678;23.332;2023-11-21T02:55:15;19.83;;;13.53;;
13208;SDS011;6669;42.678;23.332;2023-11-21T02:57:45;16.60;;;13.57;;
13208;SDS011;6669;42.678;23.332;2023-11-21T03:00:13;17.20;;;12.97;;
13208;SDS011;6669;42.678;23.332;2023-11-21T03:02:42;16.50;;;13.27;;
13208;SDS011;6669;42.678;23.332;2023-11-21T03:05:10;16.33;;;12.87;;
13208;SDS011;6669;42.678;23.332;2023-11-21T03:07:39;18.70;;;13.30;;
13208;SDS011;6669;42.678;23.332;2023-11-21T03:10:07;21.33;;;13.73;;
13208;SDS011;6669;42.678;23.332;2023-11-21T03:12:37;17.37;;;12.97;;
13208;SDS011;6669;42.678;23.332;2023-11-21T03:15:07;15.63;;;12.70;;
13208;SDS011;6669;42.678;23.332;2023-11-21T03:17:36;18.87;;;13.00;;
13208;SDS011;6669;42.678;23.332;2023-11-21T03:20:05;17.40;;;12.83;;
13208;SDS011;6669;42.678;23.332;2023-11-21T03:22:38;17.90;;;13.03;;
13208;SDS011;6669;42.678;23.332;2023-11-21T03:25:06;17.17;;;13.30;;
13208;SDS011;6669;42.678;23.332;2023-11-21T03:27:38;17.60;;;12.83;;
13208;SDS011;6669;42.678;23.332;2023-11-21T03:30:08;16.40;;;13.33;;
13208;SDS011;6669;42.678;23.332;2023-11-21T03:32:37;17.70;;;14.07;;
13208;SDS011;6669;42.678;23.332;2023-11-21T03:35:06;17.70;;;13.10;;
13208;SDS011;6669;42.678;23.332;2023-11-21T03:37:34;18.20;;;13.90;;
13208;SDS011;6669;42.678;23.332;2023-11-21T03:40:05;16.63;;;13.20;;
13208;SDS011;6669;42.678;23.332;2023-11-21T03:42:35;18.07;;;13.43;;
13208;SDS011;6669;42.678;23.332;2023-11-21T03:45:03;17.70;;;12.80;;
13208;SDS011;6669;42.678;23.332;2023-11-21T03:47:33;16.00;;;13.03;;
13208;SDS011;6669;42.678;23.332;2023-11-21T03:50:02;16.23;;;13.33;;
13208;SDS011;6669;42.678;23.332;2023-11-21T03:52:30;17.27;;;13.00;;
13208;SDS011;6669;42.678;23.332;2023-11-21T03:54:59;15.03;;;12.17;;
13208;SDS011;6669;42.678;23.332;2023-11-21T03:57:27;18.63;;;13.23;;
13208;SDS011;6669;42.678;23.332;2023-11-21T03:59:55;17.13;;;12.10;;
13208;SDS011;6669;42.678;23.332;2023-11-21T04:02:23;16.63;;;12.80;;
13208;SDS011;6669;42.678;23.332;2023-11-21T04:04:54;15.40;;;12.27;;
13208;SDS011;6669;42.678;23.332;2023-11-21T04:07:23;15.43;;;12.03;;
13208;SDS011;6669;42.678;23.332;2023-11-21T04:09:51;16.50;;;12.60;;
13208;SDS011;6669;42.678;23.332;2023-11-21T04:12:20;15.80;;;12.40;;
13208;SDS011;6669;42.678;23.332;2023-11-21T04:14:48;17.80;;;12.83;;
13208;SDS011;6669;42.678;23.332;2023-11-21T04:17:18;14.20;;;11.67;;
13208;SDS011;6669;42.678;23.332;2023-11-21T04:19:47;16.50;;;13.13;;
13208;SDS011;6669;42.678;23.332;2023-11-21T04:22:16;15.40;;;12.30;;
13208;SDS011;6669;42.678;23.332;2023-11-21T04:24:44;15.03;;;12.33;;
13208;SDS011;6669;42.678;23.332;2023-11-21T04:27:12;14.40;;;12.20;;
13208;SDS011;6669;42.678;23.332;2023-11-21T04:29:41;16.10;;;12.40;;
13208;SDS011;6669;42.678;23.332;2023-11-21T04:32:09;15.33;;;12.33;;
13208;SDS011;6669;42.678;23.332;2023-11-21T04:34:37;15.90;;;11.17;;
13208;SDS011;6669;42.678;23.332;2023-11-21T04:37:05;15.63;;;11.70;;
13208;SDS011;6669;42.678;23.332;2023-11-21T04:39:34;16.37;;;11.70;;
13208;SDS011;6669;42.678;23.332;2023-11-21T04:42:03;12.57;;;10.77;;
13208;SDS011;6669;42.678;23.332;2023-11-21T04:44:31;16.00;;;11.23;;
13208;SDS011;6669;42.678;23.332;2023-11-21T04:46:59;17.17;;;11.90;;
13208;SDS011;6669;42.678;23.332;2023-11-21T04:49:28;16.07;;;12.07;;
13208;SDS011;6669;42.678;23.332;2023-11-21T04:51:56;15.53;;;11.60;;
13208;SDS011;6669;42.678;23.332;2023-11-21T04:54:24;15.27;;;12.13;;
13208;SDS011;6669;42.678;23.332;2023-11-21T04:56:55;14.70;;;10.93;;
13208;SDS011;6669;42.678;23.332;2023-11-21T04:59:23;16.37;;;11.47;;
13208;SDS011;6669;42.678;23.332;2023-11-21T05:01:53;14.30;;;11.30;;
13208;SDS011;6669;42.678;23.332;2023-11-21T05:04:21;14.40;;;10.33;;
13208;SDS011;6669;42.678;23.332;2023-11-21T05:06:50;14.57;;;10.77;;
13208;SDS011;6669;42.678;23.332;2023-11-21T05:09:18;13.80;;;11.03;;
13208;SDS011;6669;42.678;23.332;2023-11-21T05:11:46;16.10;;;11.63;;
13208;SDS011;6669;42.678;23.332;2023-11-21T05:14:16;16.33;;;11.80;;
13208;SDS011;6669;42.678;23.332;2023-11-21T05:16:45;15.27;;;10.27;;
13208;SDS011;6669;42.678;23.332;2023-11-21T05:19:13;13.13;;;9.07;;
13208;SDS011;6669;42.678;23.332;2023-11-21T05:21:41;13.47;;;9.50;;
13208;SDS011;6669;42.678;23.332;2023-11-21T05:24:10;12.27;;;9.17;;
13208;SDS011;6669;42.678;23.332;2023-11-21T05:26:38;10.77;;;8.90;;
13208;SDS011;6669;42.678;23.332;2023-11-21T05:29:06;15.00;;;9.13;;
13208;SDS011;6669;42.678;23.332;2023-11-21T05:31:36;14.53;;;10.43;;
13208;SDS011;6669;42.678;23.332;2023-11-21T05:34:05;12.73;;;8.50;;
13208;SDS011;6669;42.678;23.332;2023-11-21T05:36:36;15.50;;;9.30;;
13208;SDS011;6669;42.678;23.332;2023-11-21T05:39:04;12.43;;;9.37;;
13208;SDS011;6669;42.678;23.332;2023-11-21T05:41:32;12.83;;;9.13;;
13208;SDS011;6669;42.678;23.332;2023-11-21T05:44:00;11.37;;;8.80;;
13208;SDS011;6669;42.678;23.332;2023-11-21T05:46:28;10.67;;;8.43;;
13208;SDS011;6669;42.678;23.332;2023-11-21T05:48:58;14.47;;;8.50;;
13208;SDS011;6669;42.678;23.332;2023-11-21T05:51:26;13.87;;;8.67;;
13208;SDS011;6669;42.678;23.332;2023-11-21T05:53:55;12.10;;;7.93;;
13208;SDS011;6669;42.678;23.332;2023-11-21T05:56:23;14.53;;;10.60;;
13208;SDS011;6669;42.678;23.332;2023-11-21T05:58:51;9.03;;;8.13;;
13208;SDS011;6669;42.678;23.332;2023-11-21T06:01:20;11.80;;;8.10;;
13208;SDS011;6669;42.678;23.332;2023-11-21T06:03:48;9.80;;;8.00;;
13208;SDS011;6669;42.678;23.332;2023-11-21T06:06:18;10.53;;;8.63;;
13208;SDS011;6669;42.678;23.332;2023-11-21T06:08:46;12.03;;;8.63;;
13208;SDS011;6669;42.678;23.332;2023-11-21T06:11:14;15.93;;;11.30;;
13208;SDS011;6669;42.678;23.332;2023-11-21T06:13:43;13.63;;;9.60;;
13208;SDS011;6669;42.678;23.332;2023-11-21T06:16:11;20.43;;;12.80;;
13208;SDS011;6669;42.678;23.332;2023-11-21T06:18:43;13.20;;;9.10;;
13208;SDS011;6669;42.678;23.332;2023-11-21T06:21:11;12.40;;;10.47;;
13208;SDS011;6669;42.678;23.332;2023-11-21T06:23:41;16.23;;;11.30;;
13208;SDS011;6669;42.678;23.332;2023-11-21T06:26:09;17.67;;;11.07;;
13208;SDS011;6669;42.678;23.332;2023-11-21T06:28:39;15.17;;;12.07;;
13208;SDS011;6669;42.678;23.332;2023-11-21T06:31:07;15.00;;;12.90;;
13208;SDS011;6669;42.678;23.332;2023-11-21T06:33:37;19.03;;;12.83;;
13208;SDS011;6669;42.678;23.332;2023-11-21T06:36:05;19.33;;;13.57;;
13208;SDS011;6669;42.678;23.332;2023-11-21T06:38:34;19.23;;;13.27;;
13208;SDS011;6669;42.678;23.332;2023-11-21T06:41:03;16.67;;;13.23;;
13208;SDS011;6669;42.678;23.332;2023-11-21T06:43:32;16.47;;;13.73;;
13208;SDS011;6669;42.678;23.332;2023-11-21T06:46:00;18.27;;;13.80;;
13208;SDS011;6669;42.678;23.332;2023-11-21T06:48:28;19.20;;;13.43;;
13208;SDS011;6669;42.678;23.332;2023-11-21T06:50:59;21.63;;;14.10;;
13208;SDS011;6669;42.678;23.332;2023-11-21T06:53:27;23.80;;;18.37;;
13208;SDS011;6669;42.678;23.332;2023-11-21T06:55:55;25.40;;;19.13;;
13208;SDS011;6669;42.678;23.332;2023-11-21T06:58:25;31.60;;;17.63;;
13208;SDS011;6669;42.678;23.332;2023-11-21T07:00:53;31.13;;;19.23;;
13208;SDS011;6669;42.678;23.332;2023-11-21T07:03:22;26.87;;;17.33;;
13208;SDS011;6669;42.678;23.332;2023-11-21T07:05:50;26.13;;;15.83;;
13208;SDS011;6669;42.678;23.332;2023-11-21T07:08:18;23.47;;;16.13;;
13208;SDS011;6669;42.678;23.332;2023-11-21T07:10:46;22.73;;;17.73;;
13208;SDS011;6669;42.678;23.332;2023-11-21T07:13:15;21.93;;;13.43;;
13208;SDS011;6669;42.678;23.332;2023-11-21T07:15:45;20.27;;;15.20;;
13208;SDS011;6669;42.678;23.332;2023-11-21T07:18:13;16.53;;;9.63;;
13208;SDS011;6669;42.678;23.332;2023-11-21T07:20:41;9.73;;;7.30;;
13208;SDS011;6669;42.678;23.332;2023-11-21T07:23:09;8.20;;;6.93;;
13208;SDS011;6669;42.678;23.332;2023-11-21T07:25:38;10.40;;;7.37;;
13208;SDS011;6669;42.678;23.332;2023-11-21T07:28:07;9.27;;;7.40;;
13208;SDS011;6669;42.678;23.332;2023-11-21T07:30:35;11.50;;;7.27;;
13208;SDS011;6669;42.678;23.332;2023-11-21T07:33:05;12.67;;;7.50;;
13208;SDS011;6669;42.678;23.332;2023-11-21T07:35:34;11.63;;;8.07;;
13208;SDS011;6669;42.678;23.332;2023-11-21T07:38:02;12.03;;;8.50;;
13208;SDS011;6669;42.678;23.332;2023-11-21T07:40:30;17.23;;;9.03;;
13208;SDS011;6669;42.678;23.332;2023-11-21T07:42:59;13.80;;;8.90;;
13208;SDS011;6669;42.678;23.332;2023-11-21T07:45:27;12.27;;;8.20;;
13208;SDS011;6669;42.678;23.332;2023-11-21T07:47:55;10.37;;;8.13;;
13208;SDS011;6669;42.678;23.332;2023-11-21T07:50:25;9.43;;;8.40;;
13208;SDS011;6669;42.678;23.332;2023-11-21T07:52:53;12.37;;;8.40;;
13208;SDS011;6669;42.678;23.332;2023-11-21T07:55:21;11.57;;;8.00;;
13208;SDS011;6669;42.678;23.332;2023-11-21T07:57:51;10.53;;;7.17;;
13208;SDS011;6669;42.678;23.332;2023-11-21T08:00:20;10.83;;;7.47;;
13208;SDS011;6669;42.678;23.332;2023-11-21T08:02:48;10.57;;;7.67;;
13208;SDS011;6669;42.678;23.332;2023-11-21T08:05:17;9.33;;;7.67;;
13208;SDS011;6669;42.678;23.332;2023-11-21T08:07:59;10.03;;;7.70;;
13208;SDS011;6669;42.678;23.332;2023-11-21T08:10:27;12.60;;;9.17;;
13208;SDS011;6669;42.678;23.332;2023-11-21T08:12:56;14.03;;;9.37;;
13208;SDS011;6669;42.678;23.332;2023-11-21T08:15:24;17.83;;;9.20;;
13208;SDS011;6669;42.678;23.332;2023-11-21T08:17:53;11.20;;;8.70;;
13208;SDS011;6669;42.678;23.332;2023-11-21T08:20:21;10.40;;;7.53;;
13208;SDS011;6669;42.678;23.332;2023-11-21T08:22:51;12.17;;;7.70;;
13208;SDS011;6669;42.678;23.332;2023-11-21T08:25:21;10.03;;;6.77;;
13208;SDS011;6669;42.678;23.332;2023-11-21T08:27:49;10.57;;;6.70;;
13208;SDS011;6669;42.678;23.332;2023-11-21T08:30:18;8.80;;;6.50;;
13208;SDS011;6669;42.678;23.332;2023-11-21T08:32:48;7.87;;;6.77;;
13208;SDS011;6669;42.678;23.332;2023-11-21T08:35:17;12.43;;;7.37;;
13208;SDS011;6669;42.678;23.332;2023-11-21T08:37:46;8.43;;;6.87;;
13208;SDS011;6669;42.678;23.332;2023-11-21T08:40:14;11.90;;;7.60;;
13208;SDS011;6669;42.678;23.332;2023-11-21T08:42:45;10.53;;;7.20;;
13208;SDS011;6669;42.678;23.332;2023-11-21T08:45:14;10.90;;;7.30;;
13208;SDS011;6669;42.678;23.332;2023-11-21T08:47:44;9.40;;;7.77;;
13208;SDS011;6669;42.678;23.332;2023-11-21T08:50:13;11.07;;;7.67;;
13208;SDS011;6669;42.678;23.332;2023-11-21T08:52:42;12.33;;;7.40;;
13208;SDS011;6669;42.678;23.332;2023-11-21T08:55:13;13.33;;;8.30;;
13208;SDS011;6669;42.678;23.332;2023-11-21T08:57:43;13.03;;;7.70;;
13208;SDS011;6669;42.678;23.332;2023-11-21T09:00:13;12.87;;;8.20;;
13208;SDS011;6669;42.678;23.332;2023-11-21T09:02:44;11.30;;;7.40;;
13208;SDS011;6669;42.678;23.332;2023-11-21T09:05:13;12.13;;;8.87;;
13208;SDS011;6669;42.678;23.332;2023-11-21T09:07:42;13.83;;;8.40;;
13208;SDS011;6669;42.678;23.332;2023-11-21T09:10:12;10.80;;;8.37;;
13208;SDS011;6669;42.678;23.332;2023-11-21T09:12:41;10.67;;;8.50;;
13208;SDS011;6669;42.678;23.332;2023-11-21T09:15:11;9.83;;;8.43;;
13208;SDS011;6669;42.678;23.332;2023-11-21T09:17:39;9.53;;;8.50;;
13208;SDS011;6669;42.678;23.332;2023-11-21T09:20:08;14.20;;;10.20;;
13208;SDS011;6669;42.678;23.332;2023-11-21T09:22:37;17.87;;;13.37;;
13208;SDS011;6669;42.678;23.332;2023-11-21T09:25:06;17.57;;;13.93;;
13208;SDS011;6669;42.678;23.332;2023-11-21T09:27:38;23.80;;;15.20;;
13208;SDS011;6669;42.678;23.332;2023-11-21T09:30:12;22.37;;;15.93;;
13208;SDS011;6669;42.678;23.332;2023-11-21T09:32:41;22.00;;;15.83;;
13208;SDS011;6669;42.678;23.332;2023-11-21T09:35:12;21.90;;;17.70;;
13208;SDS011;6669;42.678;23.332;2023-11-21T09:37:41;25.37;;;18.83;;
13208;SDS011;6669;42.678;23.332;2023-11-21T09:40:12;21.43;;;18.33;;
13208;SDS011;6669;42.678;23.332;2023-11-21T09:42:45;24.17;;;18.20;;
13208;SDS011;6669;42.678;23.332;2023-11-21T09:45:21;26.80;;;16.57;;
13208;SDS011;6669;42.678;23.332;2023-11-21T09:47:53;23.00;;;16.10;;
13208;SDS011;6669;42.678;23.332;2023-11-21T09:50:22;19.27;;;16.00;;
13208;SDS011;6669;42.678;23.332;2023-11-21T09:52:57;21.00;;;16.07;;
13208;SDS011;6669;42.678;23.332;2023-11-21T09:55:37;20.20;;;14.17;;
13208;SDS011;6669;42.678;23.332;2023-11-21T09:58:07;24.00;;;16.03;;
13208;SDS011;6669;42.678;23.332;2023-11-21T10:00:41;21.13;;;16.30;;
13208;SDS011;6669;42.678;23.332;2023-11-21T10:03:10;16.90;;;13.88;;
13208;SDS011;6669;42.678;23.332;2023-11-21T10:05:39;18.63;;;12.73;;
13208;SDS011;6669;42.678;23.332;2023-11-21T10:08:09;19.20;;;12.73;;
13208;SDS011;6669;42.678;23.332;2023-11-21T10:10:42;15.30;;;13.00;;
13208;SDS011;6669;42.678;23.332;2023-11-21T10:13:13;20.67;;;16.88;;
13208;SDS011;6669;42.678;23.332;2023-11-21T10:15:45;22.33;;;17.70;;
13208;SDS011;6669;42.678;23.332;2023-11-21T10:18:18;21.83;;;16.20;;
13208;SDS011;6669;42.678;23.332;2023-11-21T10:20:49;19.13;;;17.08;;
13208;SDS011;6669;42.678;23.332;2023-11-21T10:23:20;22.90;;;16.88;;
13208;SDS011;6669;42.678;23.332;2023-11-21T10:25:50;24.55;;;17.17;;
13208;SDS011;6669;42.678;23.332;2023-11-21T10:28:20;20.63;;;16.65;;
13208;SDS011;6669;42.678;23.332;2023-11-21T10:30:50;22.60;;;16.33;;
13208;SDS011;6669;42.678;23.332;2023-11-21T10:33:20;19.42;;;15.93;;
13208;SDS011;6669;42.678;23.332;2023-11-21T10:35:55;20.02;;;16.13;;
13208;SDS011;6669;42.678;23.332;2023-11-21T10:38:23;19.45;;;16.08;;
13208;SDS011;6669;42.678;23.332;2023-11-21T10:40:54;24.92;;;14.93;;
13208;SDS011;6669;42.678;23.332;2023-11-21T10:43:24;22.38;;;14.50;;
13208;SDS011;6669;42.678;23.332;2023-11-21T10:45:54;18.42;;;14.25;;
13208;SDS011;6669;42.678;23.332;2023-11-21T10:48:26;18.13;;;12.98;;
13208;SDS011;6669;42.678;23.332;2023-11-21T10:50:54;16.90;;;13.38;;
13208;SDS011;6669;42.678;23.332;2023-11-21T10:53:23;15.43;;;12.32;;
13208;SDS011;6669;42.678;23.332;2023-11-21T10:55:55;13.75;;;10.40;;
13208;SDS011;6669;42.678;23.332;2023-11-21T10:58:31;12.02;;;10.27;;
13208;SDS011;6669;42.678;23.332;2023-11-21T11:01:01;12.32;;;9.48;;
13208;SDS011;6669;42.678;23.332;2023-11-21T11:03:33;11.98;;;9.20;;
13208;SDS011;6669;42.678;23.332;2023-11-21T11:06:04;12.35;;;9.05;;
13208;SDS011;6669;42.678;23.332;2023-11-21T11:08:38;14.27;;;9.10;;
13208;SDS011;6669;42.678;23.332;2023-11-21T11:11:07;11.15;;;9.52;;
13208;SDS011;6669;42.678;23.332;2023-11-21T11:13:37;9.80;;;8.05;;
13208;SDS011;6669;42.678;23.332;2023-11-21T11:16:07;11.47;;;8.93;;
13208;SDS011;6669;42.678;23.332;2023-11-21T11:18:37;14.65;;;10.45;;
13208;SDS011;6669;42.678;23.332;2023-11-21T11:21:07;16.30;;;9.90;;
13208;SDS011;6669;42.678;23.332;2023-11-21T11:23:59;14.40;;;10.07;;
13208;SDS011;6669;42.678;23.332;2023-11-21T11:26:50;16.23;;;10.70;;
13208;SDS011;6669;42.678;23.332;2023-11-21T11:29:26;15.48;;;9.25;;
13208;SDS011;6669;42.678;23.332;2023-11-21T11:32:06;11.88;;;8.27;;
13208;SDS011;6669;42.678;23.332;2023-11-21T11:34:46;10.87;;;8.80;;
13208;SDS011;6669;42.678;23.332;2023-11-21T11:37:20;12.27;;;9.02;;
13208;SDS011;6669;42.678;23.332;2023-11-21T11:39:49;11.20;;;8.68;;
13208;SDS011;6669;42.678;23.332;2023-11-21T11:42:21;10.20;;;8.93;;
13208;SDS011;6669;42.678;23.332;2023-11-21T11:44:51;11.10;;;9.30;;
13208;SDS011;6669;42.678;23.332;2023-11-21T11:47:23;14.20;;;8.85;;
13208;SDS011;6669;42.678;23.332;2023-11-21T11:49:59;9.88;;;8.38;;
13208;SDS011;6669;42.678;23.332;2023-11-21T11:52:38;10.53;;;8.60;;
13208;SDS011;6669;42.678;23.332;2023-11-21T11:55:09;13.87;;;10.53;;
13208;SDS011;6669;42.678;23.332;2023-11-21T11:57:38;14.77;;;9.83;;
13208;SDS011;6669;42.678;23.332;2023-11-21T12:00:07;14.53;;;9.03;;
13208;SDS011;6669;42.678;23.332;2023-11-21T12:02:39;15.20;;;10.00;;
13208;SDS011;6669;42.678;23.332;2023-11-21T12:05:09;15.13;;;11.00;;
13208;SDS011;6669;42.678;23.332;2023-11-21T12:07:46;14.50;;;11.57;;
13208;SDS011;6669;42.678;23.332;2023-11-21T12:10:16;16.63;;;12.13;;
13208;SDS011;6669;42.678;23.332;2023-11-21T12:12:47;16.03;;;11.07;;
13208;SDS011;6669;42.678;23.332;2023-11-21T12:15:16;15.03;;;12.13;;
13208;SDS011;6669;42.678;23.332;2023-11-21T12:17:46;17.03;;;11.97;;
13208;SDS011;6669;42.678;23.332;2023-11-21T12:20:16;18.70;;;12.83;;
13208;SDS011;6669;42.678;23.332;2023-11-21T12:22:47;19.00;;;11.47;;
13208;SDS011;6669;42.678;23.332;2023-11-21T12:25:16;16.00;;;12.87;;
13208;SDS011;6669;42.678;23.332;2023-11-21T12:27:46;14.80;;;12.30;;
13208;SDS011;6669;42.678;23.332;2023-11-21T12:30:17;18.90;;;13.40;;
13208;SDS011;6669;42.678;23.332;2023-11-21T12:32:50;15.77;;;13.30;;
13208;SDS011;6669;42.678;23.332;2023-11-21T12:35:20;18.23;;;13.67;;
13208;SDS011;6669;42.678;23.332;2023-11-21T12:37:51;20.83;;;14.80;;
13208;SDS011;6669;42.678;23.332;2023-11-21T12:40:20;17.17;;;14.60;;
13208;SDS011;6669;42.678;23.332;2023-11-21T12:42:51;18.73;;;14.60;;
13208;SDS011;6669;42.678;23.332;2023-11-21T12:45:21;16.80;;;13.83;;
13208;SDS011;6669;42.678;23.332;2023-11-21T12:47:54;18.23;;;14.33;;
13208;SDS011;6669;42.678;23.332;2023-11-21T12:50:26;20.67;;;14.97;;
13208;SDS011;6669;42.678;23.332;2023-11-21T12:52:58;18.43;;;14.37;;
13208;SDS011;6669;42.678;23.332;2023-11-21T12:55:29;18.93;;;14.23;;
13208;SDS011;6669;42.678;23.332;2023-11-21T12:58:00;18.20;;;14.43;;
13208;SDS011;6669;42.678;23.332;2023-11-21T13:00:37;18.80;;;14.80;;
13208;SDS011;6669;42.678;23.332;2023-11-21T13:03:11;19.57;;;15.00;;
13208;SDS011;6669;42.678;23.332;2023-11-21T13:05:44;16.80;;;14.57;;
13208;SDS011;6669;42.678;23.332;2023-11-21T13:08:18;18.07;;;15.03;;
13208;SDS011;6669;42.678;23.332;2023-11-21T13:10:49;19.57;;;14.97;;
13208;SDS011;6669;42.678;23.332;2023-11-21T13:13:22;19.63;;;15.13;;
13208;SDS011;6669;42.678;23.332;2023-11-21T13:15:52;17.10;;;15.07;;
13208;SDS011;6669;42.678;23.332;2023-11-21T13:18:24;21.43;;;14.47;;
13208;SDS011;6669;42.678;23.332;2023-11-21T13:20:53;18.33;;;14.73;;
13208;SDS011;6669;42.678;23.332;2023-11-21T13:23:23;21.23;;;15.10;;
13208;SDS011;6669;42.678;23.332;2023-11-21T13:25:52;16.00;;;14.37;;
13208;SDS011;6669;42.678;23.332;2023-11-21T13:28:30;16.53;;;14.17;;
13208;SDS011;6669;42.678;23.332;2023-11-21T13:31:00;17.97;;;14.53;;
13208;SDS011;6669;42.678;23.332;2023-11-21T13:33:38;20.70;;;14.53;;
13208;SDS011;6669;42.678;23.332;2023-11-21T13:36:09;19.90;;;14.43;;
13208;SDS011;6669;42.678;23.332;2023-11-21T13:38:40;22.00;;;14.93;;
13208;SDS011;6669;42.678;23.332;2023-11-21T13:41:10;22.57;;;15.50;;
13208;SDS011;6669;42.678;23.332;2023-11-21T13:43:40;19.13;;;15.27;;
13208;SDS011;6669;42.678;23.332;2023-11-21T13:46:14;17.37;;;14.73;;
13208;SDS011;6669;42.678;23.332;2023-11-21T13:48:50;19.80;;;15.10;;
13208;SDS011;6669;42.678;23.332;2023-11-21T13:51:23;20.20;;;15.60;;
13208;SDS011;6669;42.678;23.332;2023-11-21T13:54:01;18.20;;;14.13;;
13208;SDS011;6669;42.678;23.332;2023-11-21T13:56:31;19.87;;;14.60;;
13208;SDS011;6669;42.678;23.332;2023-11-21T13:59:00;20.50;;;15.53;;
13208;SDS011;6669;42.678;23.332;2023-11-21T14:01:35;20.00;;;15.20;;
13208;SDS011;6669;42.678;23.332;2023-11-21T14:04:21;20.77;;;15.50;;
13208;SDS011;6669;42.678;23.332;2023-11-21T14:07:05;17.57;;;14.93;;
13208;SDS011;6669;42.678;23.332;2023-11-21T14:09:49;19.37;;;15.30;;
13208;SDS011;6669;42.678;23.332;2023-11-21T14:12:18;20.20;;;17.00;;
13208;SDS011;6669;42.678;23.332;2023-11-21T14:14:47;17.73;;;14.23;;
13208;SDS011;6669;42.678;23.332;2023-11-21T14:17:16;22.47;;;15.90;;
13208;SDS011;6669;42.678;23.332;2023-11-21T14:19:45;22.50;;;15.63;;
13208;SDS011;6669;42.678;23.332;2023-11-21T14:22:13;18.33;;;15.63;;
13208;SDS011;6669;42.678;23.332;2023-11-21T14:24:43;21.33;;;16.83;;
13208;SDS011;6669;42.678;23.332;2023-11-21T14:27:13;22.63;;;15.00;;
13208;SDS011;6669;42.678;23.332;2023-11-21T14:29:42;22.93;;;15.57;;
13208;SDS011;6669;42.678;23.332;2023-11-21T14:32:12;21.10;;;15.63;;
13208;SDS011;6669;42.678;23.332;2023-11-21T14:34:41;22.43;;;15.17;;
13208;SDS011;6669;42.678;23.332;2023-11-21T14:37:14;17.57;;;15.03;;
13208;SDS011;6669;42.678;23.332;2023-11-21T14:39:42;19.80;;;15.67;;
13208;SDS011;6669;42.678;23.332;2023-11-21T14:42:12;22.80;;;15.43;;